Pilote Boat 112 — FAB8786 — position and weather

sailwx.info

Track history (hours):
 
Tides and Currents Weather Stations Pressure Air Temp Water Temp Dewpoint Dewpoint Depression Visibility Wind Speed Wind Dir Waves Ship Positions

Pilote Boat 112

Last reported at 2018-May-24 05:48 UTC. Time now 2018-May-24 06:23 UTC.
Position N 43°18' E 005°22'.

Length 12 m.

Type: Pilot. MMSI: 227247960.

Date/timePositionNaut miles runAvg speedWind from/ knotsBaromVisibWave heightAir tempDewpointWater temp
2018-May-24 05:48N 43°18' E 005°22'1 2.1
2018-May-24 05:17N 43°18' E 005°20'2 6.1
2018-May-24 04:55N 43°16' E 005°19'3 6.9
2018-May-24 04:30N 43°18' E 005°22'3 0.9
2018-May-24 01:48N 43°17' E 005°19'1 0.5
2018-May-24 00:07N 43°17' E 005°19'1 0.1
2018-May-23 17:47N 43°17' E 005°19'3 4.8
2018-May-23 17:09N 43°19' E 005°22'1 6.8
2018-May-23 17:00N 43°18' E 005°22'0 0.0
2018-May-23 16:30N 43°18' E 005°22'0 0.0
2018-May-23 15:58N 43°18' E 005°22'0 0.0
2018-May-23 15:30N 43°18' E 005°22'0 0.0
2018-May-23 15:00N 43°18' E 005°22'0 0.0
2018-May-23 14:28N 43°18' E 005°22'0 0.0
2018-May-23 14:00N 43°18' E 005°22'0 0.0
2018-May-23 13:30N 43°18' E 005°22'0 0.0
2018-May-23 13:00N 43°18' E 005°22'0 0.0
2018-May-23 12:26N 43°18' E 005°22'0 0.0
2018-May-23 11:58N 43°18' E 005°22'0 0.0
2018-May-23 11:30N 43°18' E 005°22'0 0.0
2018-May-23 11:00N 43°18' E 005°22'0 0.0
2018-May-23 10:30N 43°18' E 005°22'0 0.0
2018-May-23 10:00N 43°18' E 005°22'0 0.0
2018-May-23 09:30N 43°18' E 005°22'0 0.0
2018-May-23 09:00N 43°18' E 005°22'0 0.0
2018-May-23 08:30N 43°18' E 005°22'0 0.0
2018-May-23 08:00N 43°18' E 005°22'0 0.0
2018-May-23 05:42N 43°18' E 005°22'212.9
2018-May-23 05:30N 43°16' E 005°19'3 3.5
2018-May-23 04:43N 43°18' E 005°22'211.8
2018-May-23 04:30N 43°17' E 005°19'1 1.1
2018-May-23 03:57N 43°17' E 005°20'1 0.1
2018-May-22 18:29N 43°17' E 005°19'1 2.7
2018-May-22 18:00N 43°17' E 005°20'1 1.5
2018-May-22 17:29N 43°18' E 005°21'0 0.9
2018-May-22 17:00N 43°18' E 005°22'0 0.1
2018-May-22 15:49N 43°18' E 005°22'0 0.0
2018-May-22 10:36N 43°18' E 005°22'0 0.9
2018-May-22 10:25N 43°18' E 005°22'0 0.0
2018-May-22 10:01N 43°18' E 005°22'0 0.6
2018-May-22 09:23N 43°18' E 005°22'0 0.3
2018-May-22 07:53N 43°18' E 005°22'3 1.4
2018-May-22 06:03N 43°17' E 005°19'2 2.4
2018-May-22 05:12N 43°18' E 005°21'0 0.9
2018-May-22 04:41N 43°18' E 005°22'3 0.2
2018-May-21 17:21N 43°17' E 005°19'2 4.5
2018-May-21 17:00N 43°18' E 005°20'1 2.1
2018-May-21 16:30N 43°18' E 005°22'0 0.0
2018-May-21 15:54N 43°18' E 005°22'0 0.4
2018-May-21 15:24N 43°18' E 005°22'0 0.4
2018-May-21 15:00N 43°18' E 005°22'0 0.7
2018-May-21 14:22N 43°18' E 005°22'2 0.3
2018-May-21 08:44N 43°17' E 005°20'2 0.9
2018-May-21 06:49N 43°18' E 005°22'0 0.2
2018-May-21 06:13N 43°18' E 005°22'0 1.1
2018-May-21 05:50N 43°18' E 005°22'2 5.0
2018-May-21 05:25N 43°17' E 005°19'0 0.4
2018-May-21 04:31N 43°17' E 005°19'023.5
2018-May-21 04:30N 43°16' E 005°19'3 0.2
2018-May-20 16:27N 43°18' E 005°22'0 0.1
2018-May-20 13:59N 43°18' E 005°22'0 0.5
2018-May-20 13:10N 43°18' E 005°22'0 0.6
2018-May-20 12:29N 43°18' E 005°22'0 0.0
2018-May-20 06:02N 43°18' E 005°22'0 7.6
2018-May-20 06:01N 43°18' E 005°22'1 2.1
2018-May-20 05:30N 43°19' E 005°22'1 2.0
2018-May-20 04:58N 43°18' E 005°22'2 3.2
2018-May-20 04:28N 43°17' E 005°20'2 5.1
2018-May-20 03:59N 43°19' E 005°22'1 2.2
2018-May-20 03:30N 43°18' E 005°22'0 0.1
2018-May-19 20:52N 43°18' E 005°22'0 0.4
2018-May-19 19:54N 43°18' E 005°22'0 0.0
2018-May-19 14:33N 43°18' E 005°22'0 7.4
2018-May-19 14:31N 43°18' E 005°21'0 0.0
2018-May-19 11:38N 43°18' E 005°22'0 0.4
2018-May-19 11:03N 43°18' E 005°22'118.6
2018-May-19 11:00N 43°17' E 005°21'1 1.0
2018-May-19 09:52N 43°17' E 005°19'2 2.7
2018-May-19 09:07N 43°18' E 005°22'0 0.1
2018-May-19 05:22N 43°18' E 005°21'0 0.5
2018-May-19 04:52N 43°18' E 005°22'1 0.1
2018-May-18 17:53N 43°18' E 005°21'1 1.6
2018-May-18 17:30N 43°17' E 005°20'1 0.5
2018-May-18 14:47N 43°18' E 005°22'0 0.4
2018-May-18 13:55N 43°18' E 005°21'0 0.1
2018-May-18 12:10N 43°18' E 005°21'0 0.6
2018-May-18 11:44N 43°18' E 005°21'2 0.9
2018-May-18 09:11N 43°17' E 005°19'2 7.1
2018-May-18 08:52N 43°18' E 005°22'0 0.2
2018-May-18 06:21N 43°18' E 005°21'1 0.7
2018-May-18 05:36N 43°18' E 005°22'1 1.3
2018-May-18 05:10N 43°18' E 005°21'1 4.3
2018-May-18 04:57N 43°19' E 005°22'1 1.3
2018-May-18 04:28N 43°18' E 005°22'3 0.3
2018-May-17 18:46N 43°17' E 005°19'3 0.8
2018-May-17 15:40N 43°18' E 005°22'3 0.4
2018-May-17 09:38N 43°17' E 005°19'1 0.7
2018-May-17 08:46N 43°17' E 005°19'0 0.2
2018-May-17 07:48N 43°17' E 005°19'0 0.3
2018-May-17 06:19N 43°17' E 005°19'3 1.8
2018-May-17 04:57N 43°18' E 005°22'1 2.5
2018-May-17 04:25N 43°18' E 005°20'1 3.2
2018-May-17 04:00N 43°18' E 005°22'2 2.2
2018-May-17 03:12N 43°17' E 005°20'1 0.4
2018-May-17 00:58N 43°17' E 005°19'2 4.2
2018-May-17 00:30N 43°18' E 005°21'2 0.3
2018-May-16 18:25N 43°17' E 005°19'3 0.8
2018-May-16 15:22N 43°18' E 005°22'0 0.0
2018-May-16 14:55N 43°18' E 005°22'0 0.0
2018-May-16 13:43N 43°18' E 005°22'0 0.0
2018-May-16 07:16N 43°18' E 005°22'0 0.3
2018-May-16 06:15N 43°18' E 005°22'1 0.7
2018-May-16 05:17N 43°18' E 005°21'0 1.1
2018-May-16 04:54N 43°18' E 005°22'1 0.1
2018-May-15 19:51N 43°18' E 005°21'1 0.9
2018-May-15 19:03N 43°18' E 005°22'0 0.0
2018-May-15 19:00N 43°18' E 005°22'0 0.0
2018-May-15 18:30N 43°18' E 005°22'0 0.0
2018-May-15 18:00N 43°18' E 005°22'0 0.0
2018-May-15 17:30N 43°18' E 005°22'0 0.0
2018-May-15 17:00N 43°18' E 005°22'0 0.0
2018-May-15 16:30N 43°18' E 005°22'3 0.8
2018-May-15 13:10N 43°17' E 005°19'213.8
2018-May-15 13:00N 43°18' E 005°21'0 0.5
2018-May-15 12:26N 43°18' E 005°22'3 0.4
2018-May-15 06:48N 43°17' E 005°19'3 8.5
2018-May-15 06:30N 43°18' E 005°22'2 1.6
2018-May-15 05:26N 43°17' E 005°20'1 1.9
2018-May-15 05:00N 43°17' E 005°21'1 1.9
2018-May-15 04:31N 43°18' E 005°22'0 0.1
2018-May-15 04:00N 43°18' E 005°22'0 0.0
2018-May-15 03:31N 43°18' E 005°22'3 0.3
2018-May-14 17:58N 43°17' E 005°19'0 0.4
2018-May-14 17:24N 43°17' E 005°19'2 6.0
2018-May-14 17:00N 43°18' E 005°22'0 0.0
2018-May-14 16:31N 43°18' E 005°22'0 0.6
2018-May-14 16:00N 43°18' E 005°22'0 0.3
2018-May-14 14:54N 43°18' E 005°22'  
Track history (hours):
 
Tides and Currents Weather Stations Pressure Air Temp Water Temp Dewpoint Dewpoint Depression Visibility Wind Speed Wind Dir Waves Ship Positions

Pilote Boat 112

Last reported at 2018-May-24 05:48 UTC. Time now 2018-May-24 06:23 UTC.
Position N 43°18' E 005°22'.

Length 12 m.

Type: Pilot. MMSI: 227247960.

Date/timePositionNaut miles runAvg speedWind from/ knotsBaromVisibWave heightAir tempDewpointWater temp
2018-May-24 05:48N 43°18' E 005°22'1 2.1
2018-May-24 05:17N 43°18' E 005°20'2 6.1
2018-May-24 04:55N 43°16' E 005°19'3 6.9
2018-May-24 04:30N 43°18' E 005°22'3 0.9
2018-May-24 01:48N 43°17' E 005°19'1 0.5
2018-May-24 00:07N 43°17' E 005°19'1 0.1
2018-May-23 17:47N 43°17' E 005°19'3 4.8
2018-May-23 17:09N 43°19' E 005°22'1 6.8
2018-May-23 17:00N 43°18' E 005°22'0 0.0
2018-May-23 16:30N 43°18' E 005°22'0 0.0
2018-May-23 15:58N 43°18' E 005°22'0 0.0
2018-May-23 15:30N 43°18' E 005°22'0 0.0
2018-May-23 15:00N 43°18' E 005°22'0 0.0
2018-May-23 14:28N 43°18' E 005°22'0 0.0
2018-May-23 14:00N 43°18' E 005°22'0 0.0
2018-May-23 13:30N 43°18' E 005°22'0 0.0
2018-May-23 13:00N 43°18' E 005°22'0 0.0
2018-May-23 12:26N 43°18' E 005°22'0 0.0
2018-May-23 11:58N 43°18' E 005°22'0 0.0
2018-May-23 11:30N 43°18' E 005°22'0 0.0
2018-May-23 11:00N 43°18' E 005°22'0 0.0
2018-May-23 10:30N 43°18' E 005°22'0 0.0
2018-May-23 10:00N 43°18' E 005°22'0 0.0
2018-May-23 09:30N 43°18' E 005°22'0 0.0
2018-May-23 09:00N 43°18' E 005°22'0 0.0
2018-May-23 08:30N 43°18' E 005°22'0 0.0
2018-May-23 08:00N 43°18' E 005°22'0 0.0
2018-May-23 05:42N 43°18' E 005°22'212.9
2018-May-23 05:30N 43°16' E 005°19'3 3.5
2018-May-23 04:43N 43°18' E 005°22'211.8
2018-May-23 04:30N 43°17' E 005°19'1 1.1
2018-May-23 03:57N 43°17' E 005°20'1 0.1
2018-May-22 18:29N 43°17' E 005°19'1 2.7
2018-May-22 18:00N 43°17' E 005°20'1 1.5
2018-May-22 17:29N 43°18' E 005°21'0 0.9
2018-May-22 17:00N 43°18' E 005°22'0 0.1
2018-May-22 15:49N 43°18' E 005°22'0 0.0
2018-May-22 10:36N 43°18' E 005°22'0 0.9
2018-May-22 10:25N 43°18' E 005°22'0 0.0
2018-May-22 10:01N 43°18' E 005°22'0 0.6
2018-May-22 09:23N 43°18' E 005°22'0 0.3
2018-May-22 07:53N 43°18' E 005°22'3 1.4
2018-May-22 06:03N 43°17' E 005°19'2 2.4
2018-May-22 05:12N 43°18' E 005°21'0 0.9
2018-May-22 04:41N 43°18' E 005°22'3 0.2
2018-May-21 17:21N 43°17' E 005°19'2 4.5
2018-May-21 17:00N 43°18' E 005°20'1 2.1
2018-May-21 16:30N 43°18' E 005°22'0 0.0
2018-May-21 15:54N 43°18' E 005°22'0 0.4
2018-May-21 15:24N 43°18' E 005°22'0 0.4
2018-May-21 15:00N 43°18' E 005°22'0 0.7
2018-May-21 14:22N 43°18' E 005°22'2 0.3
2018-May-21 08:44N 43°17' E 005°20'2 0.9
2018-May-21 06:49N 43°18' E 005°22'0 0.2
2018-May-21 06:13N 43°18' E 005°22'0 1.1
2018-May-21 05:50N 43°18' E 005°22'2 5.0
2018-May-21 05:25N 43°17' E 005°19'0 0.4
2018-May-21 04:31N 43°17' E 005°19'023.5
2018-May-21 04:30N 43°16' E 005°19'3 0.2
2018-May-20 16:27N 43°18' E 005°22'0 0.1
2018-May-20 13:59N 43°18' E 005°22'0 0.5
2018-May-20 13:10N 43°18' E 005°22'0 0.6
2018-May-20 12:29N 43°18' E 005°22'0 0.0
2018-May-20 06:02N 43°18' E 005°22'0 7.6
2018-May-20 06:01N 43°18' E 005°22'1 2.1
2018-May-20 05:30N 43°19' E 005°22'1 2.0
2018-May-20 04:58N 43°18' E 005°22'2 3.2
2018-May-20 04:28N 43°17' E 005°20'2 5.1
2018-May-20 03:59N 43°19' E 005°22'1 2.2
2018-May-20 03:30N 43°18' E 005°22'0 0.1
2018-May-19 20:52N 43°18' E 005°22'0 0.4
2018-May-19 19:54N 43°18' E 005°22'0 0.0
2018-May-19 14:33N 43°18' E 005°22'0 7.4
2018-May-19 14:31N 43°18' E 005°21'0 0.0
2018-May-19 11:38N 43°18' E 005°22'0 0.4
2018-May-19 11:03N 43°18' E 005°22'118.6
2018-May-19 11:00N 43°17' E 005°21'1 1.0
2018-May-19 09:52N 43°17' E 005°19'2 2.7
2018-May-19 09:07N 43°18' E 005°22'0 0.1
2018-May-19 05:22N 43°18' E 005°21'0 0.5
2018-May-19 04:52N 43°18' E 005°22'1 0.1
2018-May-18 17:53N 43°18' E 005°21'1 1.6
2018-May-18 17:30N 43°17' E 005°20'1 0.5
2018-May-18 14:47N 43°18' E 005°22'0 0.4
2018-May-18 13:55N 43°18' E 005°21'0 0.1
2018-May-18 12:10N 43°18' E 005°21'0 0.6
2018-May-18 11:44N 43°18' E 005°21'2 0.9
2018-May-18 09:11N 43°17' E 005°19'2 7.1
2018-May-18 08:52N 43°18' E 005°22'0 0.2
2018-May-18 06:21N 43°18' E 005°21'1 0.7
2018-May-18 05:36N 43°18' E 005°22'1 1.3
2018-May-18 05:10N 43°18' E 005°21'1 4.3
2018-May-18 04:57N 43°19' E 005°22'1 1.3
2018-May-18 04:28N 43°18' E 005°22'3 0.3
2018-May-17 18:46N 43°17' E 005°19'3 0.8
2018-May-17 15:40N 43°18' E 005°22'3 0.4
2018-May-17 09:38N 43°17' E 005°19'1 0.7
2018-May-17 08:46N 43°17' E 005°19'0 0.2
2018-May-17 07:48N 43°17' E 005°19'0 0.3
2018-May-17 06:19N 43°17' E 005°19'3 1.8
2018-May-17 04:57N 43°18' E 005°22'1 2.5
2018-May-17 04:25N 43°18' E 005°20'1 3.2
2018-May-17 04:00N 43°18' E 005°22'2 2.2
2018-May-17 03:12N 43°17' E 005°20'1 0.4
2018-May-17 00:58N 43°17' E 005°19'2 4.2
2018-May-17 00:30N 43°18' E 005°21'2 0.3
2018-May-16 18:25N 43°17' E 005°19'3 0.8
2018-May-16 15:22N 43°18' E 005°22'0 0.0
2018-May-16 14:55N 43°18' E 005°22'0 0.0
2018-May-16 13:43N 43°18' E 005°22'0 0.0
2018-May-16 07:16N 43°18' E 005°22'0 0.3
2018-May-16 06:15N 43°18' E 005°22'1 0.7
2018-May-16 05:17N 43°18' E 005°21'0 1.1
2018-May-16 04:54N 43°18' E 005°22'1 0.1
2018-May-15 19:51N 43°18' E 005°21'1 0.9
2018-May-15 19:03N 43°18' E 005°22'0 0.0
2018-May-15 19:00N 43°18' E 005°22'0 0.0
2018-May-15 18:30N 43°18' E 005°22'0 0.0
2018-May-15 18:00N 43°18' E 005°22'0 0.0
2018-May-15 17:30N 43°18' E 005°22'0 0.0
2018-May-15 17:00N 43°18' E 005°22'0 0.0
2018-May-15 16:30N 43°18' E 005°22'3 0.8
2018-May-15 13:10N 43°17' E 005°19'213.8
2018-May-15 13:00N 43°18' E 005°21'0 0.5
2018-May-15 12:26N 43°18' E 005°22'3 0.4
2018-May-15 06:48N 43°17' E 005°19'3 8.5
2018-May-15 06:30N 43°18' E 005°22'2 1.6
2018-May-15 05:26N 43°17' E 005°20'1 1.9
2018-May-15 05:00N 43°17' E 005°21'1 1.9
2018-May-15 04:31N 43°18' E 005°22'0 0.1
2018-May-15 04:00N 43°18' E 005°22'0 0.0
2018-May-15 03:31N 43°18' E 005°22'3 0.3
2018-May-14 17:58N 43°17' E 005°19'0 0.4
2018-May-14 17:24N 43°17' E 005°19'2 6.0
2018-May-14 17:00N 43°18' E 005°22'0 0.0
2018-May-14 16:31N 43°18' E 005°22'0 0.6
2018-May-14 16:00N 43°18' E 005°22'0 0.3
2018-May-14 14:54N 43°18' E 005°22'  

Dump ship's entire track history